CheckWX is a tool to help pilots better visualize weather data.  It is not intended as a substitute for an official pre-flight weather briefing.

08:05:19 UTC

LFSB TAF
Euro Basel-Mulhouse-Freiburg Airport
Bâle/Mulhouse, France
TAF AMD LFSB 190733Z 1907/2006 36004KT 9999 FEW030 SCT080 PROB40 TEMPO 1911/1916 FEW040TCU SCT050

Mar-19@
07:00 UTC

Mar-19 @ 07:00 UTC

Mar-20@
06:00 UTC

Mar-20 @ 06:00 UTC

TAF AMD LFSB 190733Z 1907/2006 36004KT 9999 FEW030 SCT080
Wind
  • 360° at 4 KTS
Cloud Levels
  • Few at 3,000' AGL
  • Scattered at 8,000' AGL

Mar-19@
11:00 UTC

Mar-19 @ 11:00 UTC

Mar-19@
16:00 UTC

Mar-19 @ 16:00 UTC

PROB40 TEMPO 1911/1916 FEW040TCU SCT050

Temporary - 40% Likelihood

Temporary - 40% Likelihood during this time.

Cloud Levels
  • Few at 4,000' AGL
  • Scattered at 5,000' AGL